sensor_id;sensor_type;location;lat;lon;timestamp;pressure;altitude;pressure_sealevel;temperature;humidity
45071;BME280;30836;48.906;9.140;2023-09-12T00:00:13;982.48;;;28.19;44.08
45071;BME280;30836;48.906;9.140;2023-09-12T00:01:13;982.48;;;28.16;44.35
45071;BME280;30836;48.906;9.140;2023-09-12T00:02:14;982.48;;;28.14;44.35
45071;BME280;30836;48.906;9.140;2023-09-12T00:03:14;982.48;;;28.11;44.60
45071;BME280;30836;48.906;9.140;2023-09-12T00:04:18;982.48;;;28.08;44.83
45071;BME280;30836;48.906;9.140;2023-09-12T00:05:19;982.44;;;28.04;44.80
45071;BME280;30836;48.906;9.140;2023-09-12T00:06:19;982.42;;;28.01;44.95
45071;BME280;30836;48.906;9.140;2023-09-12T00:06:29;982.42;;;27.98;44.92
45071;BME280;30836;48.906;9.140;2023-09-12T00:07:30;982.40;;;27.99;44.83
45071;BME280;30836;48.906;9.140;2023-09-12T00:08:30;982.38;;;27.98;44.90
45071;BME280;30836;48.906;9.140;2023-09-12T00:09:31;982.40;;;27.97;44.90
45071;BME280;30836;48.906;9.140;2023-09-12T00:10:31;982.36;;;27.95;44.92
45071;BME280;30836;48.906;9.140;2023-09-12T00:11:32;982.36;;;27.93;44.91
45071;BME280;30836;48.906;9.140;2023-09-12T00:12:32;982.36;;;27.91;44.94
45071;BME280;30836;48.906;9.140;2023-09-12T00:13:33;982.32;;;27.90;44.94
45071;BME280;30836;48.906;9.140;2023-09-12T00:14:33;982.34;;;27.89;44.86
45071;BME280;30836;48.906;9.140;2023-09-12T00:15:34;982.30;;;27.90;44.97
45071;BME280;30836;48.906;9.140;2023-09-12T00:16:34;982.30;;;27.91;44.99
45071;BME280;30836;48.906;9.140;2023-09-12T00:17:35;982.32;;;27.92;44.99
45071;BME280;30836;48.906;9.140;2023-09-12T00:18:35;982.30;;;27.93;44.99
45071;BME280;30836;48.906;9.140;2023-09-12T00:19:35;982.32;;;27.94;44.90
45071;BME280;30836;48.906;9.140;2023-09-12T00:20:36;982.32;;;27.96;44.91
45071;BME280;30836;48.906;9.140;2023-09-12T00:21:36;982.30;;;27.98;44.82
45071;BME280;30836;48.906;9.140;2023-09-12T00:22:37;982.30;;;28.00;44.82
45071;BME280;30836;48.906;9.140;2023-09-12T00:23:37;982.34;;;28.01;44.82
45071;BME280;30836;48.906;9.140;2023-09-12T00:24:37;982.30;;;28.02;44.74
45071;BME280;30836;48.906;9.140;2023-09-12T00:25:38;982.36;;;28.04;44.68
45071;BME280;30836;48.906;9.140;2023-09-12T00:26:38;982.34;;;28.04;44.71
45071;BME280;30836;48.906;9.140;2023-09-12T00:27:39;982.30;;;28.04;44.69
45071;BME280;30836;48.906;9.140;2023-09-12T00:28:39;982.30;;;28.03;44.70
45071;BME280;30836;48.906;9.140;2023-09-12T00:29:40;982.34;;;28.04;44.65
45071;BME280;30836;48.906;9.140;2023-09-12T00:30:40;982.32;;;28.04;44.60
45071;BME280;30836;48.906;9.140;2023-09-12T00:31:40;982.32;;;28.04;44.64
45071;BME280;30836;48.906;9.140;2023-09-12T00:32:41;982.30;;;28.04;44.53
45071;BME280;30836;48.906;9.140;2023-09-12T00:33:41;982.26;;;28.04;44.65
45071;BME280;30836;48.906;9.140;2023-09-12T00:34:42;982.28;;;28.03;44.64
45071;BME280;30836;48.906;9.140;2023-09-12T00:35:43;982.26;;;28.02;44.65
45071;BME280;30836;48.906;9.140;2023-09-12T00:36:44;982.28;;;28.01;44.66
45071;BME280;30836;48.906;9.140;2023-09-12T00:37:44;982.26;;;28.00;44.61
45071;BME280;30836;48.906;9.140;2023-09-12T00:38:47;982.28;;;27.99;44.63
45071;BME280;30836;48.906;9.140;2023-09-12T00:39:47;982.28;;;27.98;44.60
45071;BME280;30836;48.906;9.140;2023-09-12T00:40:48;982.28;;;27.98;44.68
45071;BME280;30836;48.906;9.140;2023-09-12T00:41:48;982.30;;;27.97;44.58
45071;BME280;30836;48.906;9.140;2023-09-12T00:42:49;982.30;;;27.96;44.65
45071;BME280;30836;48.906;9.140;2023-09-12T00:43:49;982.32;;;27.94;44.58
45071;BME280;30836;48.906;9.140;2023-09-12T00:44:50;982.30;;;27.94;44.46
45071;BME280;30836;48.906;9.140;2023-09-12T00:45:50;982.32;;;27.93;44.52
45071;BME280;30836;48.906;9.140;2023-09-12T00:46:50;982.32;;;27.93;44.49
45071;BME280;30836;48.906;9.140;2023-09-12T00:47:53;982.32;;;27.92;44.55
45071;BME280;30836;48.906;9.140;2023-09-12T00:48:55;982.30;;;27.93;44.57
45071;BME280;30836;48.906;9.140;2023-09-12T00:49:57;982.28;;;27.98;44.45
45071;BME280;30836;48.906;9.140;2023-09-12T00:50:59;982.32;;;28.08;44.45
45071;BME280;30836;48.906;9.140;2023-09-12T00:52:00;982.28;;;28.18;44.30
45071;BME280;30836;48.906;9.140;2023-09-12T00:53:02;982.26;;;28.25;44.34
45071;BME280;30836;48.906;9.140;2023-09-12T00:54:03;982.22;;;28.30;44.24
45071;BME280;30836;48.906;9.140;2023-09-12T00:55:04;982.26;;;28.34;44.04
45071;BME280;30836;48.906;9.140;2023-09-12T00:56:05;982.24;;;28.39;43.90
45071;BME280;30836;48.906;9.140;2023-09-12T00:57:06;982.24;;;28.43;43.90
45071;BME280;30836;48.906;9.140;2023-09-12T00:58:07;982.28;;;28.46;43.74
45071;BME280;30836;48.906;9.140;2023-09-12T00:59:08;982.28;;;28.49;43.66
45071;BME280;30836;48.906;9.140;2023-09-12T01:00:11;982.28;;;28.50;43.51
45071;BME280;30836;48.906;9.140;2023-09-12T01:01:12;982.28;;;28.53;43.48
45071;BME280;30836;48.906;9.140;2023-09-12T01:02:13;982.28;;;28.55;43.47
45071;BME280;30836;48.906;9.140;2023-09-12T01:03:13;982.30;;;28.56;43.42
45071;BME280;30836;48.906;9.140;2023-09-12T01:04:14;982.30;;;28.58;43.45
45071;BME280;30836;48.906;9.140;2023-09-12T01:05:14;982.30;;;28.57;43.35
45071;BME280;30836;48.906;9.140;2023-09-12T01:06:16;982.26;;;28.56;43.41
45071;BME280;30836;48.906;9.140;2023-09-12T01:07:19;982.30;;;28.53;43.37
45071;BME280;30836;48.906;9.140;2023-09-12T01:08:20;982.28;;;28.51;43.28
45071;BME280;30836;48.906;9.140;2023-09-12T01:09:20;982.28;;;28.48;43.37
45071;BME280;30836;48.906;9.140;2023-09-12T01:10:21;982.24;;;28.46;43.31
45071;BME280;30836;48.906;9.140;2023-09-12T01:11:21;982.24;;;28.45;43.37
45071;BME280;30836;48.906;9.140;2023-09-12T01:12:22;982.24;;;28.44;43.39
45071;BME280;30836;48.906;9.140;2023-09-12T01:13:23;982.24;;;28.43;43.38
45071;BME280;30836;48.906;9.140;2023-09-12T01:14:24;982.26;;;28.43;43.30
45071;BME280;30836;48.906;9.140;2023-09-12T01:15:24;982.22;;;28.45;43.28
45071;BME280;30836;48.906;9.140;2023-09-12T01:16:25;982.24;;;28.45;43.30
45071;BME280;30836;48.906;9.140;2023-09-12T01:17:25;982.24;;;28.45;43.35
45071;BME280;30836;48.906;9.140;2023-09-12T01:18:27;982.24;;;28.44;43.39
45071;BME280;30836;48.906;9.140;2023-09-12T01:19:27;982.22;;;28.44;43.44
45071;BME280;30836;48.906;9.140;2023-09-12T01:20:28;982.22;;;28.44;43.52
45071;BME280;30836;48.906;9.140;2023-09-12T01:28:13;982.18;;;28.51;43.03
45071;BME280;30836;48.906;9.140;2023-09-12T01:29:16;982.18;;;28.52;43.04
45071;BME280;30836;48.906;9.140;2023-09-12T01:30:22;982.16;;;28.53;43.01
45071;BME280;30836;48.906;9.140;2023-09-12T01:31:25;982.18;;;28.53;43.11
45071;BME280;30836;48.906;9.140;2023-09-12T01:32:26;982.18;;;28.54;43.11
45071;BME280;30836;48.906;9.140;2023-09-12T01:33:27;982.18;;;28.54;43.07
45071;BME280;30836;48.906;9.140;2023-09-12T01:34:27;982.18;;;28.53;43.16
45071;BME280;30836;48.906;9.140;2023-09-12T01:35:27;982.18;;;28.52;43.21
45071;BME280;30836;48.906;9.140;2023-09-12T01:36:28;982.18;;;28.51;43.25
45071;BME280;30836;48.906;9.140;2023-09-12T01:37:31;982.20;;;28.50;43.34
45071;BME280;30836;48.906;9.140;2023-09-12T01:38:32;982.20;;;28.49;43.34
45071;BME280;30836;48.906;9.140;2023-09-12T01:39:32;982.22;;;28.48;43.42
45071;BME280;30836;48.906;9.140;2023-09-12T01:40:39;982.24;;;28.48;43.36
45071;BME280;30836;48.906;9.140;2023-09-12T01:41:46;982.22;;;28.47;43.34
45071;BME280;30836;48.906;9.140;2023-09-12T01:42:47;982.24;;;28.47;43.31
45071;BME280;30836;48.906;9.140;2023-09-12T01:43:49;982.20;;;28.45;43.38
45071;BME280;30836;48.906;9.140;2023-09-12T01:57:25;982.16;;;28.31;43.45
45071;BME280;30836;48.906;9.140;2023-09-12T01:58:26;982.16;;;28.30;43.40
45071;BME280;30836;48.906;9.140;2023-09-12T01:59:28;982.14;;;28.31;43.37
45071;BME280;30836;48.906;9.140;2023-09-12T02:00:29;982.14;;;28.31;43.36
45071;BME280;30836;48.906;9.140;2023-09-12T02:01:29;982.04;;;28.31;43.36
45071;BME280;30836;48.906;9.140;2023-09-12T02:02:30;982.02;;;28.31;43.32
45071;BME280;30836;48.906;9.140;2023-09-12T02:03:30;982.12;;;28.34;43.33
45071;BME280;30836;48.906;9.140;2023-09-12T02:04:31;982.14;;;28.35;43.28
45071;BME280;30836;48.906;9.140;2023-09-12T02:05:31;982.12;;;28.34;43.19
45071;BME280;30836;48.906;9.140;2023-09-12T02:06:32;982.14;;;28.33;43.14
45071;BME280;30836;48.906;9.140;2023-09-12T02:07:35;982.14;;;28.32;43.22
45071;BME280;30836;48.906;9.140;2023-09-12T02:07:46;982.12;;;28.29;43.22
45071;BME280;30836;48.906;9.140;2023-09-12T02:08:47;982.12;;;28.28;43.27
45071;BME280;30836;48.906;9.140;2023-09-12T02:09:47;982.14;;;28.22;43.56
45071;BME280;30836;48.906;9.140;2023-09-12T02:10:48;982.12;;;28.10;43.83
45071;BME280;30836;48.906;9.140;2023-09-12T02:11:48;982.12;;;27.87;44.15
45071;BME280;30836;48.906;9.140;2023-09-12T02:12:50;982.14;;;27.81;44.34
45071;BME280;30836;48.906;9.140;2023-09-12T02:13:50;982.12;;;27.72;44.59
45071;BME280;30836;48.906;9.140;2023-09-12T02:14:50;982.02;;;27.63;44.80
45071;BME280;30836;48.906;9.140;2023-09-12T02:15:58;982.02;;;27.54;45.08
45071;BME280;30836;48.906;9.140;2023-09-12T02:17:00;982.02;;;27.47;45.11
45071;BME280;30836;48.906;9.140;2023-09-12T02:18:00;982.02;;;27.42;45.27
45071;BME280;30836;48.906;9.140;2023-09-12T02:19:00;982.04;;;27.36;45.27
45071;BME280;30836;48.906;9.140;2023-09-12T02:20:01;982.00;;;27.32;45.33
45071;BME280;30836;48.906;9.140;2023-09-12T02:21:01;982.00;;;27.29;45.43
45071;BME280;30836;48.906;9.140;2023-09-12T02:22:02;982.00;;;27.27;45.51
45071;BME280;30836;48.906;9.140;2023-09-12T02:23:02;981.98;;;27.25;45.62
45071;BME280;30836;48.906;9.140;2023-09-12T02:24:03;982.00;;;27.22;45.66
45071;BME280;30836;48.906;9.140;2023-09-12T02:25:05;981.96;;;27.20;45.73
45071;BME280;30836;48.906;9.140;2023-09-12T02:26:06;981.98;;;27.19;45.73
45071;BME280;30836;48.906;9.140;2023-09-12T02:27:06;981.96;;;27.18;45.85
45071;BME280;30836;48.906;9.140;2023-09-12T02:28:07;982.00;;;27.17;45.81
45071;BME280;30836;48.906;9.140;2023-09-12T02:29:07;982.02;;;27.16;45.82
45071;BME280;30836;48.906;9.140;2023-09-12T02:30:07;982.00;;;27.16;45.82
45071;BME280;30836;48.906;9.140;2023-09-12T02:31:11;982.02;;;27.15;45.84
45071;BME280;30836;48.906;9.140;2023-09-12T02:32:12;982.00;;;27.14;45.91
45071;BME280;30836;48.906;9.140;2023-09-12T02:33:12;982.00;;;27.13;45.98
45071;BME280;30836;48.906;9.140;2023-09-12T02:34:12;981.98;;;27.12;46.02
45071;BME280;30836;48.906;9.140;2023-09-12T02:35:13;982.00;;;27.11;46.06
45071;BME280;30836;48.906;9.140;2023-09-12T02:36:13;981.96;;;27.09;46.16
45071;BME280;30836;48.906;9.140;2023-09-12T02:37:14;981.96;;;27.08;46.15
45071;BME280;30836;48.906;9.140;2023-09-12T02:38:14;981.98;;;27.07;46.23
45071;BME280;30836;48.906;9.140;2023-09-12T02:39:15;981.94;;;27.06;46.28
45071;BME280;30836;48.906;9.140;2023-09-12T02:40:15;981.98;;;27.06;46.19
45071;BME280;30836;48.906;9.140;2023-09-12T02:41:16;981.96;;;27.07;46.12
45071;BME280;30836;48.906;9.140;2023-09-12T02:42:16;981.96;;;27.07;46.19
45071;BME280;30836;48.906;9.140;2023-09-12T02:43:17;981.96;;;27.07;46.16
45071;BME280;30836;48.906;9.140;2023-09-12T02:44:17;981.92;;;27.05;46.23
45071;BME280;30836;48.906;9.140;2023-09-12T02:45:17;981.92;;;27.02;46.29
45071;BME280;30836;48.906;9.140;2023-09-12T02:46:18;981.94;;;27.01;46.26
45071;BME280;30836;48.906;9.140;2023-09-12T02:47:18;981.90;;;27.00;46.25
45071;BME280;30836;48.906;9.140;2023-09-12T02:48:19;981.90;;;26.98;46.32
45071;BME280;30836;48.906;9.140;2023-09-12T02:49:19;981.90;;;26.95;46.43
45071;BME280;30836;48.906;9.140;2023-09-12T02:50:20;981.84;;;26.91;46.54
45071;BME280;30836;48.906;9.140;2023-09-12T02:51:20;981.84;;;26.89;46.62
45071;BME280;30836;48.906;9.140;2023-09-12T02:52:20;981.84;;;26.87;46.59
45071;BME280;30836;48.906;9.140;2023-09-12T02:53:21;981.84;;;26.86;46.60
45071;BME280;30836;48.906;9.140;2023-09-12T02:54:21;981.84;;;26.84;46.71
45071;BME280;30836;48.906;9.140;2023-09-12T02:55:22;981.84;;;26.80;46.78
45071;BME280;30836;48.906;9.140;2023-09-12T02:56:22;981.81;;;26.78;46.77
45071;BME280;30836;48.906;9.140;2023-09-12T02:57:23;981.81;;;26.78;46.72
45071;BME280;30836;48.906;9.140;2023-09-12T02:58:23;981.86;;;26.78;46.72
45071;BME280;30836;48.906;9.140;2023-09-12T02:59:23;981.81;;;26.78;46.77
45071;BME280;30836;48.906;9.140;2023-09-12T03:00:24;981.82;;;26.77;46.79
45071;BME280;30836;48.906;9.140;2023-09-12T03:01:24;981.84;;;26.77;46.73
45071;BME280;30836;48.906;9.140;2023-09-12T03:02:25;981.84;;;26.77;46.73
45071;BME280;30836;48.906;9.140;2023-09-12T03:03:25;981.82;;;26.76;46.80
45071;BME280;30836;48.906;9.140;2023-09-12T03:04:26;981.86;;;26.75;46.77
45071;BME280;30836;48.906;9.140;2023-09-12T03:05:26;981.86;;;26.74;46.86
45071;BME280;30836;48.906;9.140;2023-09-12T03:06:28;981.86;;;26.73;46.82
45071;BME280;30836;48.906;9.140;2023-09-12T03:07:29;981.86;;;26.74;46.76
45071;BME280;30836;48.906;9.140;2023-09-12T03:08:30;981.86;;;26.75;46.71
45071;BME280;30836;48.906;9.140;2023-09-12T03:09:30;981.84;;;26.74;46.69
45071;BME280;30836;48.906;9.140;2023-09-12T03:10:31;981.84;;;26.73;46.72
45071;BME280;30836;48.906;9.140;2023-09-12T03:11:31;981.82;;;26.70;46.80
45071;BME280;30836;48.906;9.140;2023-09-12T03:12:32;981.84;;;26.69;46.82
45071;BME280;30836;48.906;9.140;2023-09-12T03:13:32;981.84;;;26.69;46.89
45071;BME280;30836;48.906;9.140;2023-09-12T03:14:33;981.82;;;26.69;46.83
45071;BME280;30836;48.906;9.140;2023-09-12T03:15:37;981.81;;;26.70;46.70
45071;BME280;30836;48.906;9.140;2023-09-12T03:16:37;981.82;;;26.70;46.69
45071;BME280;30836;48.906;9.140;2023-09-12T03:17:37;981.82;;;26.70;46.74
45071;BME280;30836;48.906;9.140;2023-09-12T03:18:38;981.86;;;26.69;46.79
45071;BME280;30836;48.906;9.140;2023-09-12T03:19:38;981.88;;;26.68;46.81
45071;BME280;30836;48.906;9.140;2023-09-12T03:20:39;981.92;;;26.67;46.77
45071;BME280;30836;48.906;9.140;2023-09-12T03:21:39;981.92;;;26.66;46.79
45071;BME280;30836;48.906;9.140;2023-09-12T03:22:40;981.88;;;26.65;46.77
45071;BME280;30836;48.906;9.140;2023-09-12T03:23:40;981.90;;;26.63;46.88
45071;BME280;30836;48.906;9.140;2023-09-12T03:24:41;981.90;;;26.60;46.92
45071;BME280;30836;48.906;9.140;2023-09-12T03:25:41;981.90;;;26.59;46.89
45071;BME280;30836;48.906;9.140;2023-09-12T03:26:41;981.88;;;26.58;46.87
45071;BME280;30836;48.906;9.140;2023-09-12T03:27:42;981.86;;;26.57;46.85
45071;BME280;30836;48.906;9.140;2023-09-12T03:28:42;981.86;;;26.56;46.94
45071;BME280;30836;48.906;9.140;2023-09-12T03:29:46;981.88;;;26.55;46.95
45071;BME280;30836;48.906;9.140;2023-09-12T03:30:47;981.86;;;26.54;47.02
45071;BME280;30836;48.906;9.140;2023-09-12T03:31:47;981.88;;;26.53;46.99
45071;BME280;30836;48.906;9.140;2023-09-12T03:32:48;981.84;;;26.50;47.17
45071;BME280;30836;48.906;9.140;2023-09-12T03:33:48;981.86;;;26.45;47.37
45071;BME280;30836;48.906;9.140;2023-09-12T03:34:48;981.88;;;26.40;47.47
45071;BME280;30836;48.906;9.140;2023-09-12T03:35:49;981.88;;;26.38;47.45
45071;BME280;30836;48.906;9.140;2023-09-12T03:36:49;981.86;;;26.37;47.43
45071;BME280;30836;48.906;9.140;2023-09-12T03:37:50;981.84;;;26.37;47.44
45071;BME280;30836;48.906;9.140;2023-09-12T03:38:50;981.84;;;26.38;47.45
45071;BME280;30836;48.906;9.140;2023-09-12T03:39:51;981.82;;;26.38;47.45
45071;BME280;30836;48.906;9.140;2023-09-12T03:40:51;981.84;;;26.39;47.44
45071;BME280;30836;48.906;9.140;2023-09-12T03:41:51;981.84;;;26.39;47.37
45071;BME280;30836;48.906;9.140;2023-09-12T03:42:52;981.81;;;26.39;47.26
45071;BME280;30836;48.906;9.140;2023-09-12T03:43:53;981.81;;;26.40;47.28
45071;BME280;30836;48.906;9.140;2023-09-12T03:44:53;981.79;;;26.41;47.25
45071;BME280;30836;48.906;9.140;2023-09-12T03:45:54;981.79;;;26.42;47.18
45071;BME280;30836;48.906;9.140;2023-09-12T03:46:54;981.75;;;26.44;47.12
45071;BME280;30836;48.906;9.140;2023-09-12T03:47:55;981.77;;;26.45;47.13
45071;BME280;30836;48.906;9.140;2023-09-12T03:48:55;981.75;;;26.45;47.10
45071;BME280;30836;48.906;9.140;2023-09-12T03:49:56;981.73;;;26.47;47.08
45071;BME280;30836;48.906;9.140;2023-09-12T03:50:56;981.75;;;26.48;47.04
45071;BME280;30836;48.906;9.140;2023-09-12T03:51:56;981.77;;;26.51;46.92
45071;BME280;30836;48.906;9.140;2023-09-12T03:52:57;981.75;;;26.53;46.89
45071;BME280;30836;48.906;9.140;2023-09-12T03:53:57;981.75;;;26.56;46.92
45071;BME280;30836;48.906;9.140;2023-09-12T03:54:58;981.73;;;26.57;46.90
45071;BME280;30836;48.906;9.140;2023-09-12T03:55:08;981.73;;;26.58;46.89
45071;BME280;30836;48.906;9.140;2023-09-12T03:56:08;981.71;;;26.60;46.87
45071;BME280;30836;48.906;9.140;2023-09-12T03:57:09;981.75;;;26.63;46.78
45071;BME280;30836;48.906;9.140;2023-09-12T03:58:09;981.73;;;26.65;46.79
45071;BME280;30836;48.906;9.140;2023-09-12T03:59:10;981.75;;;26.66;46.74
45071;BME280;30836;48.906;9.140;2023-09-12T04:00:10;981.77;;;26.66;46.68
45071;BME280;30836;48.906;9.140;2023-09-12T04:01:11;981.77;;;26.66;46.60
45071;BME280;30836;48.906;9.140;2023-09-12T04:02:12;981.79;;;26.67;46.59
45071;BME280;30836;48.906;9.140;2023-09-12T04:03:13;981.79;;;26.67;46.55
45071;BME280;30836;48.906;9.140;2023-09-12T04:04:13;981.79;;;26.68;46.48
45071;BME280;30836;48.906;9.140;2023-09-12T04:05:14;981.81;;;26.68;46.47
45071;BME280;30836;48.906;9.140;2023-09-12T04:06:14;981.82;;;26.68;46.40
45071;BME280;30836;48.906;9.140;2023-09-12T04:07:15;981.79;;;26.68;46.42
45071;BME280;30836;48.906;9.140;2023-09-12T04:08:15;981.81;;;26.67;46.42
45071;BME280;30836;48.906;9.140;2023-09-12T04:09:16;981.79;;;26.66;46.48
45071;BME280;30836;48.906;9.140;2023-09-12T04:10:17;981.77;;;26.65;46.53
45071;BME280;30836;48.906;9.140;2023-09-12T04:11:18;981.79;;;26.64;46.58
45071;BME280;30836;48.906;9.140;2023-09-12T04:12:18;981.82;;;26.62;46.61
45071;BME280;30836;48.906;9.140;2023-09-12T04:13:19;981.82;;;26.60;46.64
45071;BME280;30836;48.906;9.140;2023-09-12T04:14:20;981.82;;;26.60;46.60
45071;BME280;30836;48.906;9.140;2023-09-12T04:15:21;981.84;;;26.59;46.70
45071;BME280;30836;48.906;9.140;2023-09-12T04:16:21;981.81;;;26.58;46.67
45071;BME280;30836;48.906;9.140;2023-09-12T04:17:22;981.81;;;26.58;46.66
45071;BME280;30836;48.906;9.140;2023-09-12T04:18:22;981.81;;;26.57;46.70
45071;BME280;30836;48.906;9.140;2023-09-12T04:19:22;981.79;;;26.55;46.77
45071;BME280;30836;48.906;9.140;2023-09-12T04:20:23;981.77;;;26.53;46.83
45071;BME280;30836;48.906;9.140;2023-09-12T04:21:23;981.77;;;26.51;46.85
45071;BME280;30836;48.906;9.140;2023-09-12T04:22:24;981.75;;;26.51;46.93
45071;BME280;30836;48.906;9.140;2023-09-12T04:23:24;981.75;;;26.50;47.00
45071;BME280;30836;48.906;9.140;2023-09-12T04:24:25;981.75;;;26.49;47.07
45071;BME280;30836;48.906;9.140;2023-09-12T04:25:26;981.79;;;26.48;47.04
45071;BME280;30836;48.906;9.140;2023-09-12T04:26:26;981.79;;;26.47;47.05
45071;BME280;30836;48.906;9.140;2023-09-12T04:27:26;981.81;;;26.47;46.99
45071;BME280;30836;48.906;9.140;2023-09-12T04:28:27;981.81;;;26.45;47.09
45071;BME280;30836;48.906;9.140;2023-09-12T04:29:27;981.77;;;26.44;47.12
45071;BME280;30836;48.906;9.140;2023-09-12T04:30:28;981.79;;;26.44;47.09
45071;BME280;30836;48.906;9.140;2023-09-12T04:31:28;981.79;;;26.45;47.11
45071;BME280;30836;48.906;9.140;2023-09-12T04:32:28;981.79;;;26.46;47.05
45071;BME280;30836;48.906;9.140;2023-09-12T04:33:29;981.79;;;26.47;47.04
45071;BME280;30836;48.906;9.140;2023-09-12T04:34:30;981.79;;;26.48;46.97
45071;BME280;30836;48.906;9.140;2023-09-12T04:35:33;981.79;;;26.48;47.00
45071;BME280;30836;48.906;9.140;2023-09-12T04:36:34;981.81;;;26.49;47.00
45071;BME280;30836;48.906;9.140;2023-09-12T04:37:35;981.77;;;26.51;46.99
45071;BME280;30836;48.906;9.140;2023-09-12T04:38:35;981.77;;;26.53;46.95
45071;BME280;30836;48.906;9.140;2023-09-12T04:39:36;981.75;;;26.55;46.87
45071;BME280;30836;48.906;9.140;2023-09-12T04:40:36;981.77;;;26.56;46.84
45071;BME280;30836;48.906;9.140;2023-09-12T04:41:37;981.73;;;26.56;46.84
45071;BME280;30836;48.906;9.140;2023-09-12T04:42:37;981.71;;;26.57;46.83
45071;BME280;30836;48.906;9.140;2023-09-12T04:43:38;981.71;;;26.57;46.90
45071;BME280;30836;48.906;9.140;2023-09-12T04:44:39;981.71;;;26.57;46.91
45071;BME280;30836;48.906;9.140;2023-09-12T04:45:41;981.71;;;26.57;46.90
45071;BME280;30836;48.906;9.140;2023-09-12T04:46:41;981.69;;;26.57;46.87
45071;BME280;30836;48.906;9.140;2023-09-12T04:47:41;981.69;;;26.56;46.87
45071;BME280;30836;48.906;9.140;2023-09-12T04:48:42;981.67;;;26.57;46.90
45071;BME280;30836;48.906;9.140;2023-09-12T04:49:43;981.65;;;26.57;46.85
45071;BME280;30836;48.906;9.140;2023-09-12T04:50:43;981.67;;;26.58;46.83
45071;BME280;30836;48.906;9.140;2023-09-12T04:51:44;981.65;;;26.58;46.83
45071;BME280;30836;48.906;9.140;2023-09-12T04:52:44;981.67;;;26.58;46.81
45071;BME280;30836;48.906;9.140;2023-09-12T04:53:45;981.69;;;26.59;46.76
45071;BME280;30836;48.906;9.140;2023-09-12T04:54:45;981.69;;;26.60;46.70
45071;BME280;30836;48.906;9.140;2023-09-12T04:55:46;981.69;;;26.62;46.74
45071;BME280;30836;48.906;9.140;2023-09-12T04:56:46;981.69;;;26.63;46.71
45071;BME280;30836;48.906;9.140;2023-09-12T04:57:47;981.75;;;26.64;46.72
45071;BME280;30836;48.906;9.140;2023-09-12T04:58:47;981.73;;;26.64;46.72
45071;BME280;30836;48.906;9.140;2023-09-12T04:59:47;981.73;;;26.63;46.79
45071;BME280;30836;48.906;9.140;2023-09-12T05:00:48;981.79;;;26.64;46.69
45071;BME280;30836;48.906;9.140;2023-09-12T05:01:48;981.77;;;26.66;46.58
45071;BME280;30836;48.906;9.140;2023-09-12T05:02:49;981.77;;;26.69;46.52
45071;BME280;30836;48.906;9.140;2023-09-12T05:03:49;981.77;;;26.71;46.48
45071;BME280;30836;48.906;9.140;2023-09-12T05:04:50;981.79;;;26.72;46.54
45071;BME280;30836;48.906;9.140;2023-09-12T05:05:51;981.79;;;26.73;46.52
45071;BME280;30836;48.906;9.140;2023-09-12T05:06:52;981.77;;;26.73;46.57
45071;BME280;30836;48.906;9.140;2023-09-12T05:07:52;981.75;;;26.72;46.58
45071;BME280;30836;48.906;9.140;2023-09-12T05:08:53;981.75;;;26.69;46.63
45071;BME280;30836;48.906;9.140;2023-09-12T05:09:53;981.71;;;26.65;46.66
45071;BME280;30836;48.906;9.140;2023-09-12T05:10:54;981.71;;;26.61;46.74
45071;BME280;30836;48.906;9.140;2023-09-12T05:11:54;981.71;;;26.58;46.78
45071;BME280;30836;48.906;9.140;2023-09-12T05:12:55;981.69;;;26.56;46.80
45071;BME280;30836;48.906;9.140;2023-09-12T05:13:55;981.67;;;26.55;46.85
45071;BME280;30836;48.906;9.140;2023-09-12T05:14:55;981.69;;;26.53;47.01
45071;BME280;30836;48.906;9.140;2023-09-12T05:15:56;981.67;;;26.50;47.03
45071;BME280;30836;48.906;9.140;2023-09-12T05:16:56;981.67;;;26.49;47.15
45071;BME280;30836;48.906;9.140;2023-09-12T05:17:57;981.73;;;26.50;47.19
45071;BME280;30836;48.906;9.140;2023-09-12T05:18:57;981.73;;;26.51;47.04
45071;BME280;30836;48.906;9.140;2023-09-12T05:19:58;981.73;;;26.53;46.98
45071;BME280;30836;48.906;9.140;2023-09-12T05:20:58;981.75;;;26.55;46.90
45071;BME280;30836;48.906;9.140;2023-09-12T05:21:58;981.77;;;26.57;46.87
45071;BME280;30836;48.906;9.140;2023-09-12T05:22:59;981.81;;;26.59;46.77
45071;BME280;30836;48.906;9.140;2023-09-12T05:24:00;981.81;;;26.62;46.70
45071;BME280;30836;48.906;9.140;2023-09-12T05:25:00;981.82;;;26.65;46.70
45071;BME280;30836;48.906;9.140;2023-09-12T05:26:00;981.84;;;26.68;46.57
45071;BME280;30836;48.906;9.140;2023-09-12T05:27:01;981.84;;;26.69;46.63
45071;BME280;30836;48.906;9.140;2023-09-12T05:28:01;981.82;;;26.69;46.68
45071;BME280;30836;48.906;9.140;2023-09-12T05:29:02;981.81;;;26.69;46.62
45071;BME280;30836;48.906;9.140;2023-09-12T05:30:02;981.81;;;26.69;46.66
45071;BME280;30836;48.906;9.140;2023-09-12T05:31:03;981.77;;;26.68;46.72
45071;BME280;30836;48.906;9.140;2023-09-12T05:32:04;981.79;;;26.68;46.76
45071;BME280;30836;48.906;9.140;2023-09-12T05:33:05;981.79;;;26.70;46.72
45071;BME280;30836;48.906;9.140;2023-09-12T05:34:05;981.81;;;26.73;46.74
45071;BME280;30836;48.906;9.140;2023-09-12T05:35:06;981.82;;;26.76;46.57
45071;BME280;30836;48.906;9.140;2023-09-12T05:36:06;981.86;;;26.79;46.56
45071;BME280;30836;48.906;9.140;2023-09-12T05:37:07;981.86;;;26.81;46.62
45071;BME280;30836;48.906;9.140;2023-09-12T05:38:07;981.88;;;26.83;46.58
45071;BME280;30836;48.906;9.140;2023-09-12T05:39:08;981.88;;;26.87;46.41
45071;BME280;30836;48.906;9.140;2023-09-12T05:40:08;981.88;;;26.90;46.35
45071;BME280;30836;48.906;9.140;2023-09-12T05:41:09;981.90;;;26.93;46.33
45071;BME280;30836;48.906;9.140;2023-09-12T05:42:09;981.96;;;26.95;46.26
45071;BME280;30836;48.906;9.140;2023-09-12T05:43:10;981.92;;;26.96;46.35
45071;BME280;30836;48.906;9.140;2023-09-12T05:44:10;981.94;;;26.98;46.27
45071;BME280;30836;48.906;9.140;2023-09-12T05:45:10;981.96;;;26.99;46.32
45071;BME280;30836;48.906;9.140;2023-09-12T05:46:11;981.98;;;26.97;46.35
45071;BME280;30836;48.906;9.140;2023-09-12T05:47:11;981.96;;;26.93;46.57